Time;durP1;ratioP1;P1;durP2;ratioP2;P2;SDS_P1;SDS_P2;PMS_P1;PMS_P2;Temp;Humidity;BMP_temperature;BMP_pressure;BME280_temperature;BME280_humidity;BME280_pressure;Samples;Min_cycle;Max_cycle;Signal;HPM_P1;HPM_P2
2023/12/04 00:00:11;;;;;;;9.50;8.60;;;3.80;1.00;;;;;;4967737;28;20050;-78
2023/12/04 00:02:38;;;;;;;9.60;8.70;;;3.80;1.00;;;;;;4969480;28;20035;-77
2023/12/04 00:05:05;;;;;;;8.82;8.05;;;3.80;1.00;;;;;;4964172;28;20023;-77
2023/12/04 00:07:30;;;;;;;9.07;8.05;;;3.80;1.00;;;;;;4968314;28;20031;-77
2023/12/04 00:09:56;;;;;;;12.20;8.07;;;3.90;1.00;;;;;;4964731;28;20032;-77
2023/12/04 00:12:22;;;;;;;9.52;8.60;;;3.90;1.00;;;;;;4969429;28;20027;-77
2023/12/04 00:14:47;;;;;;;10.18;8.32;;;3.80;1.00;;;;;;4965537;28;20085;-77
2023/12/04 00:17:13;;;;;;;8.80;8.00;;;3.90;1.00;;;;;;4966715;28;20031;-77
2023/12/04 00:19:39;;;;;;;9.23;7.95;;;3.80;1.00;;;;;;4961394;28;20024;-77
2023/12/04 00:22:04;;;;;;;8.48;7.75;;;3.80;1.00;;;;;;4967896;28;20535;-77
2023/12/04 00:24:30;;;;;;;8.90;8.18;;;3.80;1.00;;;;;;4965210;28;20027;-77
2023/12/04 00:26:55;;;;;;;8.60;7.55;;;3.80;1.00;;;;;;4972380;28;20070;-77
2023/12/04 00:29:21;;;;;;;8.77;8.00;;;3.80;1.00;;;;;;4979871;28;20027;-77
2023/12/04 00:31:47;;;;;;;8.50;7.75;;;3.80;1.00;;;;;;4969584;28;20409;-77
2023/12/04 00:34:12;;;;;;;8.32;7.50;;;3.70;1.00;;;;;;4964710;28;20075;-77
2023/12/04 00:36:38;;;;;;;9.05;8.25;;;3.70;1.00;;;;;;4957688;28;20033;-77
2023/12/04 00:39:04;;;;;;;8.82;7.93;;;3.70;1.00;;;;;;4950022;28;20034;-77
2023/12/04 00:41:29;;;;;;;8.93;7.28;;;3.70;1.00;;;;;;4969841;28;20026;-77
2023/12/04 00:43:55;;;;;;;7.53;6.95;;;3.70;1.00;;;;;;4955137;29;20034;-77
2023/12/04 00:46:21;;;;;;;7.80;7.15;;;3.70;1.00;;;;;;4967577;28;20469;-77
2023/12/04 00:48:47;;;;;;;8.10;7.40;;;3.60;1.00;;;;;;4967831;28;20082;-76
2023/12/04 00:51:12;;;;;;;7.53;6.93;;;3.70;1.00;;;;;;4967056;28;20034;-77
2023/12/04 00:53:38;;;;;;;8.27;7.63;;;3.70;1.00;;;;;;4968372;28;20032;-77
2023/12/04 00:56:06;;;;;;;7.82;7.13;;;3.70;1.00;;;;;;4949859;28;20059;-76
2023/12/04 00:58:31;;;;;;;7.10;6.40;;;3.70;1.00;;;;;;4971616;28;20031;-77
2023/12/04 01:00:57;;;;;;;8.13;7.47;;;3.70;1.00;;;;;;4965715;28;20302;-76
2023/12/04 01:03:26;;;;;;;6.82;6.32;;;3.70;1.00;;;;;;4977301;28;20685;-77
2023/12/04 01:05:52;;;;;;;11.70;6.88;;;3.60;1.00;;;;;;4965527;28;20023;-78
2023/12/04 01:08:17;;;;;;;7.53;6.88;;;3.60;1.00;;;;;;4958930;28;20493;-77
2023/12/04 01:10:43;;;;;;;7.68;6.97;;;3.60;1.00;;;;;;4970270;28;20109;-77
2023/12/04 01:13:09;;;;;;;7.65;7.05;;;3.50;1.00;;;;;;4971796;28;20023;-77
2023/12/04 01:15:34;;;;;;;7.60;7.00;;;3.40;1.00;;;;;;4947122;28;20042;-77
2023/12/04 01:18:00;;;;;;;8.75;7.95;;;3.50;1.00;;;;;;4956244;28;20496;-77
2023/12/04 01:20:26;;;;;;;7.82;7.13;;;3.40;1.00;;;;;;4966374;28;20500;-77
2023/12/04 01:22:51;;;;;;;7.43;6.72;;;3.40;1.00;;;;;;4969349;28;20405;-77
2023/12/04 01:25:18;;;;;;;7.20;6.53;;;3.40;1.00;;;;;;4964977;28;20027;-77
2023/12/04 01:27:43;;;;;;;7.22;6.63;;;3.40;1.00;;;;;;4970132;28;20031;-77
2023/12/04 01:30:10;;;;;;;7.25;6.65;;;3.40;1.00;;;;;;4956808;28;20473;-77
2023/12/04 01:32:36;;;;;;;7.20;6.60;;;3.40;1.00;;;;;;4969789;28;20475;-77
2023/12/04 01:35:02;;;;;;;7.45;6.70;;;3.40;1.00;;;;;;4969099;28;20110;-77
2023/12/04 01:37:28;;;;;;;7.28;6.57;;;3.40;1.00;;;;;;4954942;28;20038;-77
2023/12/04 01:39:53;;;;;;;7.38;6.68;;;3.40;1.00;;;;;;4972989;28;20033;-77
2023/12/04 01:42:19;;;;;;;7.25;6.55;;;3.40;1.00;;;;;;4969662;28;20073;-77
2023/12/04 01:44:45;;;;;;;7.38;6.70;;;3.40;1.00;;;;;;4966283;28;20532;-77
2023/12/04 01:47:11;;;;;;;6.95;6.35;;;3.40;1.00;;;;;;4970734;28;20465;-76
2023/12/04 01:49:37;;;;;;;7.15;6.45;;;3.40;1.00;;;;;;4964768;28;20110;-77
2023/12/04 01:52:04;;;;;;;7.35;6.65;;;3.30;1.00;;;;;;4969655;28;20118;-77
2023/12/04 01:54:30;;;;;;;6.50;5.95;;;3.30;1.00;;;;;;4967008;28;20027;-77
2023/12/04 01:56:57;;;;;;;6.43;5.93;;;3.40;1.00;;;;;;4970130;28;20030;-77
2023/12/04 01:59:23;;;;;;;7.18;6.57;;;3.30;1.00;;;;;;4948420;28;20482;-77
2023/12/04 02:01:49;;;;;;;7.53;6.88;;;3.30;1.00;;;;;;4968707;28;20041;-77
2023/12/04 02:04:15;;;;;;;6.47;5.88;;;3.30;1.00;;;;;;4966379;28;20113;-77
2023/12/04 02:06:41;;;;;;;7.80;7.20;;;3.30;1.00;;;;;;4951352;28;20117;-77
2023/12/04 02:09:09;;;;;;;6.22;5.72;;;3.30;1.00;;;;;;4950266;28;20039;-77
2023/12/04 02:11:35;;;;;;;7.13;6.60;;;3.30;1.00;;;;;;4966925;28;20404;-77
2023/12/04 02:14:01;;;;;;;8.10;7.45;;;3.30;1.00;;;;;;4971788;28;20031;-77
2023/12/04 02:16:28;;;;;;;6.85;6.35;;;3.30;1.00;;;;;;4950972;28;20498;-77
2023/12/04 02:18:54;;;;;;;7.57;6.72;;;3.30;1.00;;;;;;4967955;28;20027;-77
2023/12/04 02:21:19;;;;;;;7.45;6.85;;;3.30;1.00;;;;;;4967279;28;20037;-77
2023/12/04 02:23:52;;;;;;;6.68;6.20;;;3.30;1.00;;;;;;4969009;28;20500;-77
2023/12/04 02:26:27;;;;;;;8.10;7.28;;;3.30;1.00;;;;;;4966747;28;20118;-77
2023/12/04 02:28:59;;;;;;;7.63;7.00;;;3.30;1.00;;;;;;4968179;28;20529;-77
2023/12/04 02:31:26;;;;;;;7.18;6.57;;;3.30;1.00;;;;;;4947006;28;20027;-77
2023/12/04 02:33:55;;;;;;;7.43;6.85;;;3.30;1.00;;;;;;4967418;28;20062;-77
2023/12/04 02:36:25;;;;;;;7.53;6.93;;;3.30;1.00;;;;;;4967179;28;20034;-76
2023/12/04 02:38:51;;;;;;;7.05;6.47;;;3.30;1.00;;;;;;4963963;28;20031;-77
2023/12/04 02:41:17;;;;;;;7.47;6.80;;;3.40;1.00;;;;;;4968494;28;20035;-77
2023/12/04 02:43:43;;;;;;;8.30;7.50;;;3.30;1.00;;;;;;4968112;28;20130;-76
2023/12/04 02:46:09;;;;;;;7.55;6.85;;;3.30;1.00;;;;;;4965271;28;20110;-77
2023/12/04 02:48:35;;;;;;;6.55;6.05;;;3.30;1.00;;;;;;4974376;28;20042;-77
2023/12/04 02:51:02;;;;;;;8.05;7.35;;;3.30;1.00;;;;;;4964209;28;20035;-77
2023/12/04 02:53:27;;;;;;;8.00;7.30;;;3.30;1.00;;;;;;4969336;28;20035;-77
2023/12/04 02:55:53;;;;;;;7.78;6.97;;;3.30;1.00;;;;;;4965915;28;20031;-77
2023/12/04 02:58:19;;;;;;;7.93;7.18;;;3.30;1.00;;;;;;4969730;28;20113;-77
2023/12/04 03:00:44;;;;;;;7.07;6.55;;;3.30;1.00;;;;;;4960580;28;20519;-76
2023/12/04 03:03:10;;;;;;;8.02;7.32;;;3.30;1.00;;;;;;4971867;28;20030;-77
2023/12/04 03:05:36;;;;;;;7.35;6.80;;;3.40;1.00;;;;;;4963166;28;20106;-77
2023/12/04 03:08:02;;;;;;;7.93;7.22;;;3.40;1.00;;;;;;4952835;28;20034;-77
2023/12/04 03:10:27;;;;;;;8.00;7.30;;;3.40;1.00;;;;;;4967531;28;20030;-77
2023/12/04 03:12:53;;;;;;;7.63;6.93;;;3.40;1.00;;;;;;4953614;28;20121;-77
2023/12/04 03:15:19;;;;;;;7.80;7.07;;;3.40;1.00;;;;;;4963527;28;20034;-77
2023/12/04 03:17:44;;;;;;;6.85;6.32;;;3.40;1.00;;;;;;4968045;28;20030;-77
2023/12/04 03:20:10;;;;;;;7.13;6.53;;;3.40;1.00;;;;;;4947556;29;20028;-77
2023/12/04 03:22:37;;;;;;;7.45;6.88;;;3.40;1.00;;;;;;4974489;28;20474;-77
2023/12/04 03:25:03;;;;;;;7.00;6.40;;;3.50;1.00;;;;;;4964377;28;20032;-77
2023/12/04 03:27:29;;;;;;;8.07;6.90;;;3.40;1.00;;;;;;4967495;28;20050;-77
2023/12/04 03:29:54;;;;;;;7.18;6.57;;;3.50;1.00;;;;;;4952515;28;20031;-77
2023/12/04 03:32:20;;;;;;;7.80;7.10;;;3.50;1.00;;;;;;4975499;28;20447;-77
2023/12/04 03:34:46;;;;;;;7.20;6.50;;;3.50;1.00;;;;;;4966061;28;20050;-77
2023/12/04 03:37:11;;;;;;;7.65;6.95;;;3.50;1.00;;;;;;4968643;28;20434;-76
2023/12/04 03:39:37;;;;;;;6.97;6.22;;;3.50;1.00;;;;;;4966090;28;20365;-77
2023/12/04 03:42:03;;;;;;;7.70;6.97;;;3.50;1.00;;;;;;4955980;28;20503;-76
2023/12/04 03:44:28;;;;;;;6.90;6.32;;;3.50;1.00;;;;;;4947538;28;20453;-77
2023/12/04 03:46:54;;;;;;;7.30;6.68;;;3.50;1.00;;;;;;4966890;28;20091;-77
2023/12/04 03:49:20;;;;;;;7.88;7.20;;;3.50;1.00;;;;;;4967408;28;20065;-77
2023/12/04 03:51:45;;;;;;;8.25;7.35;;;3.50;1.00;;;;;;4966053;28;20436;-77
2023/12/04 03:54:13;;;;;;;6.90;6.40;;;3.50;1.00;;;;;;4966249;28;20066;-77
2023/12/04 03:56:39;;;;;;;7.45;6.78;;;3.50;1.00;;;;;;4949913;28;20035;-77
2023/12/04 03:59:05;;;;;;;6.80;6.30;;;3.50;1.00;;;;;;4966975;28;20541;-77
2023/12/04 04:01:30;;;;;;;7.55;6.85;;;3.60;1.00;;;;;;4971977;28;20035;-77
2023/12/04 04:03:56;;;;;;;7.90;7.20;;;3.60;1.00;;;;;;4972682;28;20046;-77
2023/12/04 04:06:22;;;;;;;7.28;6.68;;;3.60;1.00;;;;;;4968334;28;20089;-77
2023/12/04 04:08:48;;;;;;;7.93;7.32;;;3.60;1.00;;;;;;4969323;28;20035;-77
2023/12/04 04:11:13;;;;;;;7.00;6.40;;;3.60;1.00;;;;;;4964958;28;20094;-77
2023/12/04 04:13:39;;;;;;;7.40;6.80;;;3.60;1.00;;;;;;4972167;28;20054;-77
2023/12/04 04:16:06;;;;;;;7.90;6.80;;;3.60;1.00;;;;;;4967534;28;20509;-77
2023/12/04 04:18:31;;;;;;;7.90;7.20;;;3.70;1.00;;;;;;4972364;28;20179;-77
2023/12/04 04:20:57;;;;;;;7.57;6.88;;;3.70;1.00;;;;;;4966560;28;20657;-77
2023/12/04 04:23:23;;;;;;;7.05;6.40;;;3.70;1.00;;;;;;4970982;28;20027;-77
2023/12/04 04:25:48;;;;;;;7.07;6.50;;;3.80;1.00;;;;;;4965228;28;20488;-77
2023/12/04 04:28:14;;;;;;;7.57;6.88;;;3.80;1.00;;;;;;4973260;28;20030;-77
2023/12/04 04:30:40;;;;;;;6.20;5.70;;;3.80;99.90;;;;;;4967979;28;20118;-77
2023/12/04 04:33:05;;;;;;;7.80;7.10;;;3.90;99.90;;;;;;4957631;28;20059;-77
2023/12/04 04:35:31;;;;;;;6.88;6.32;;;3.90;99.90;;;;;;4949680;28;20609;-77
2023/12/04 04:37:57;;;;;;;6.57;5.97;;;4.00;99.90;;;;;;4970814;28;20039;-77
2023/12/04 04:40:23;;;;;;;6.80;6.20;;;4.00;99.90;;;;;;4968848;28;20034;-77
2023/12/04 04:42:48;;;;;;;6.63;6.13;;;4.00;99.90;;;;;;4970914;28;20118;-77
2023/12/04 04:45:14;;;;;;;6.28;5.78;;;4.00;99.90;;;;;;4967296;28;20026;-78
2023/12/04 04:47:40;;;;;;;6.35;5.85;;;4.10;99.90;;;;;;4970724;28;20046;-77
2023/12/04 04:50:06;;;;;;;6.32;5.88;;;4.00;99.90;;;;;;4967482;28;20038;-77
2023/12/04 04:52:32;;;;;;;6.20;5.60;;;4.00;99.90;;;;;;4952740;28;20405;-77
2023/12/04 04:54:57;;;;;;;5.80;5.30;;;4.10;99.90;;;;;;4967200;28;20066;-77
2023/12/04 04:57:23;;;;;;;6.13;5.70;;;4.10;99.90;;;;;;4952771;28;20094;-77
2023/12/04 04:59:49;;;;;;;5.95;5.55;;;4.10;99.90;;;;;;4956250;28;20063;-77
2023/12/04 05:02:14;;;;;;;5.65;5.15;;;4.20;99.90;;;;;;4971730;28;20039;-77
2023/12/04 05:04:40;;;;;;;6.63;6.07;;;4.20;99.90;;;;;;4965843;28;20041;-77
2023/12/04 05:07:06;;;;;;;6.35;5.85;;;4.20;99.90;;;;;;4952174;28;20405;-77
2023/12/04 05:09:32;;;;;;;6.65;5.82;;;4.20;99.90;;;;;;4966672;28;20551;-76
2023/12/04 05:11:57;;;;;;;6.45;5.47;;;4.20;99.90;;;;;;4969836;28;20117;-77
2023/12/04 05:14:23;;;;;;;5.55;5.15;;;4.10;99.90;;;;;;4970807;28;20031;-77
2023/12/04 05:16:49;;;;;;;6.75;6.05;;;4.10;99.90;;;;;;4969756;28;20142;-77
2023/12/04 05:19:14;;;;;;;6.20;5.65;;;4.10;99.90;;;;;;4970415;28;20027;-77
2023/12/04 05:21:40;;;;;;;7.45;6.88;;;4.10;99.90;;;;;;4967105;28;20026;-77
2023/12/04 05:24:06;;;;;;;6.65;6.07;;;4.10;99.90;;;;;;4971012;28;20156;-77
2023/12/04 05:26:31;;;;;;;7.40;6.63;;;4.10;99.90;;;;;;4953960;28;20027;-77
2023/12/04 05:28:57;;;;;;;7.03;6.43;;;4.00;99.90;;;;;;4976870;28;20552;-76
2023/12/04 05:31:23;;;;;;;10.07;6.18;;;4.00;99.90;;;;;;4968016;28;20025;-77
2023/12/04 05:33:48;;;;;;;7.63;6.70;;;4.00;99.90;;;;;;4970023;28;20105;-77
2023/12/04 05:36:14;;;;;;;8.40;6.80;;;4.00;99.90;;;;;;4957549;28;20085;-77
2023/12/04 05:38:40;;;;;;;8.82;6.63;;;4.00;99.90;;;;;;4954368;28;20037;-77
2023/12/04 05:41:05;;;;;;;7.20;6.57;;;4.00;99.90;;;;;;4966725;28;20110;-77
2023/12/04 05:43:31;;;;;;;6.63;6.13;;;4.00;99.90;;;;;;4972466;28;20110;-77
2023/12/04 05:45:57;;;;;;;7.15;6.55;;;3.90;99.90;;;;;;4947486;28;20114;-77
2023/12/04 05:48:22;;;;;;;10.63;7.05;;;3.90;99.90;;;;;;4956567;28;20031;-78
2023/12/04 05:50:48;;;;;;;8.13;7.32;;;3.90;99.90;;;;;;4965491;28;20027;-76
2023/12/04 05:53:13;;;;;;;7.80;6.82;;;4.00;99.90;;;;;;4970969;28;20429;-77
2023/12/04 05:55:40;;;;;;;7.75;6.90;;;3.90;99.90;;;;;;4962671;28;20019;-77
2023/12/04 05:58:05;;;;;;;7.85;7.13;;;3.90;99.90;;;;;;4971920;28;20030;-77
2023/12/04 06:00:31;;;;;;;8.00;7.03;;;3.90;99.90;;;;;;4964603;28;20551;-77
2023/12/04 06:02:57;;;;;;;7.35;6.75;;;3.90;99.90;;;;;;4977222;28;20062;-77
2023/12/04 06:05:23;;;;;;;7.68;7.03;;;3.80;99.90;;;;;;4967560;28;20519;-77
2023/12/04 06:07:49;;;;;;;14.07;7.97;;;3.80;99.90;;;;;;4952896;28;20133;-78
2023/12/04 06:10:14;;;;;;;8.43;7.47;;;3.80;99.90;;;;;;4966158;28;20102;-77
2023/12/04 06:12:40;;;;;;;8.57;7.28;;;3.90;99.90;;;;;;4970566;28;20035;-77
2023/12/04 06:15:06;;;;;;;9.85;7.45;;;3.90;99.90;;;;;;4966081;28;20022;-76
2023/12/04 06:17:32;;;;;;;8.93;8.05;;;3.90;99.90;;;;;;4970097;28;20081;-76
2023/12/04 06:19:57;;;;;;;8.80;7.82;;;3.90;99.90;;;;;;4966651;28;20027;-76
2023/12/04 06:22:23;;;;;;;8.70;7.90;;;3.80;99.90;;;;;;4969326;28;20060;-77
2023/12/04 06:24:49;;;;;;;8.63;7.47;;;3.80;1.00;;;;;;4969938;28;20027;-77
2023/12/04 06:27:18;;;;;;;7.55;6.95;;;3.80;1.00;;;;;;4955411;28;20035;-76
2023/12/04 06:29:44;;;;;;;8.65;7.65;;;3.90;99.90;;;;;;4945790;28;20019;-76
2023/12/04 06:32:11;;;;;;;10.88;7.97;;;3.90;99.90;;;;;;4952218;28;20042;-77
2023/12/04 06:34:37;;;;;;;7.82;7.03;;;3.80;1.00;;;;;;4966246;28;20020;-76
2023/12/04 06:37:07;;;;;;;17.40;8.00;;;3.90;99.90;;;;;;4954463;28;20503;-76
2023/12/04 06:39:33;;;;;;;9.57;7.40;;;3.90;99.90;;;;;;4966332;28;20031;-77
2023/12/04 06:42:00;;;;;;;10.27;7.28;;;3.90;99.90;;;;;;4953320;28;20382;-77
2023/12/04 06:44:25;;;;;;;8.55;6.80;;;4.00;99.90;;;;;;4948697;28;20371;-77
2023/12/04 06:46:52;;;;;;;10.85;6.95;;;4.00;99.90;;;;;;4968413;28;20041;-77
2023/12/04 06:49:18;;;;;;;9.75;6.57;;;4.00;99.90;;;;;;4955813;28;20798;-76
2023/12/04 06:51:44;;;;;;;9.10;7.10;;;4.00;99.90;;;;;;4966022;28;20035;-76
2023/12/04 06:54:11;;;;;;;8.70;6.95;;;4.00;99.90;;;;;;4964236;28;20396;-77
2023/12/04 06:56:38;;;;;;;10.70;7.13;;;4.10;99.90;;;;;;4965533;28;20082;-77
2023/12/04 06:59:04;;;;;;;10.57;7.05;;;4.10;99.90;;;;;;4967647;28;20388;-76
2023/12/04 07:01:29;;;;;;;12.55;7.60;;;4.10;99.90;;;;;;4965255;28;20030;-77
2023/12/04 07:03:55;;;;;;;9.82;7.05;;;4.10;99.90;;;;;;4969348;28;20020;-77
2023/12/04 07:06:21;;;;;;;10.65;6.72;;;4.10;99.90;;;;;;4965306;28;20449;-76
2023/12/04 07:08:47;;;;;;;6.82;6.32;;;4.10;99.90;;;;;;4967918;28;20046;-77
2023/12/04 07:11:14;;;;;;;6.82;6.32;;;4.20;99.90;;;;;;4962384;28;20033;-77
2023/12/04 07:13:41;;;;;;;13.73;7.13;;;4.10;99.90;;;;;;4953230;28;20488;-77
2023/12/04 07:16:08;;;;;;;11.30;7.43;;;4.20;99.90;;;;;;4954808;28;20500;-77
2023/12/04 07:18:34;;;;;;;10.60;7.72;;;4.10;99.90;;;;;;4968785;28;20031;-77
2023/12/04 07:21:00;;;;;;;8.43;7.47;;;4.10;99.90;;;;;;4964293;28;20030;-77
2023/12/04 07:23:26;;;;;;;8.13;7.30;;;4.20;99.90;;;;;;4969035;28;20027;-77
2023/12/04 07:25:52;;;;;;;7.75;7.07;;;4.20;99.90;;;;;;4962611;28;20027;-76
2023/12/04 07:28:18;;;;;;;9.65;7.32;;;4.20;99.90;;;;;;4955299;28;20026;-77
2023/12/04 07:30:44;;;;;;;11.07;8.32;;;4.20;99.90;;;;;;4962277;28;20477;-77
2023/12/04 07:33:09;;;;;;;10.07;8.85;;;4.30;99.90;;;;;;4968645;28;20050;-77
2023/12/04 07:35:35;;;;;;;13.48;7.97;;;4.30;99.90;;;;;;4963347;28;20416;-77
2023/12/04 07:38:01;;;;;;;9.57;8.20;;;4.40;99.90;;;;;;4968539;28;20034;-77
2023/12/04 07:40:26;;;;;;;8.80;7.90;;;4.40;99.90;;;;;;4965075;28;20106;-77
2023/12/04 07:42:52;;;;;;;13.95;8.23;;;4.40;99.90;;;;;;4969689;28;20034;-77
2023/12/04 07:45:18;;;;;;;10.88;8.75;;;4.50;99.90;;;;;;4964767;28;20528;-77
2023/12/04 07:47:43;;;;;;;17.25;8.82;;;4.60;99.90;;;;;;4971845;28;20034;-77
2023/12/04 07:50:09;;;;;;;9.38;8.38;;;4.60;99.90;;;;;;4965024;28;20031;-77
2023/12/04 07:52:35;;;;;;;13.23;8.20;;;4.60;99.90;;;;;;4967494;28;20117;-77
2023/12/04 07:55:01;;;;;;;8.82;7.93;;;4.60;99.90;;;;;;4967877;28;20382;-78
2023/12/04 07:57:26;;;;;;;11.15;8.43;;;4.60;99.90;;;;;;4967697;28;20035;-77
2023/12/04 07:59:53;;;;;;;13.05;8.55;;;4.60;99.90;;;;;;4962588;28;20020;-77
2023/12/04 08:02:18;;;;;;;12.15;8.68;;;4.70;99.90;;;;;;4968644;28;20023;-77
2023/12/04 08:04:44;;;;;;;12.18;8.27;;;4.70;99.90;;;;;;4946620;28;20540;-77
2023/12/04 08:07:11;;;;;;;15.45;8.70;;;4.80;99.90;;;;;;4956102;28;20062;-77
2023/12/04 08:09:36;;;;;;;17.85;12.13;;;4.70;99.90;;;;;;4962066;28;20082;-77
2023/12/04 08:12:02;;;;;;;14.65;13.10;;;4.60;1.00;;;;;;4967656;28;20389;-77
2023/12/04 08:14:28;;;;;;;47.60;31.65;;;4.50;1.00;;;;;;4962866;28;20543;-77
2023/12/04 08:16:53;;;;;;;31.92;19.52;;;4.50;1.00;;;;;;4965263;28;20046;-77
2023/12/04 08:19:19;;;;;;;19.73;15.70;;;4.60;1.00;;;;;;4954907;28;20030;-76
2023/12/04 08:21:46;;;;;;;18.13;14.82;;;4.40;1.00;;;;;;4968697;28;20023;-77
2023/12/04 08:24:11;;;;;;;22.27;13.95;;;4.30;1.00;;;;;;4953254;28;20030;-77
2023/12/04 08:26:37;;;;;;;25.45;14.75;;;4.30;1.00;;;;;;4966083;28;20033;-77
2023/12/04 08:29:03;;;;;;;19.80;13.65;;;4.30;1.00;;;;;;4965356;28;20027;-77
2023/12/04 08:31:28;;;;;;;15.10;13.05;;;4.30;1.00;;;;;;4966138;28;20037;-77
2023/12/04 08:33:54;;;;;;;18.02;13.75;;;4.30;1.00;;;;;;4964869;28;20038;-76
2023/12/04 08:36:20;;;;;;;15.73;13.65;;;4.30;1.00;;;;;;4964543;28;20397;-77
2023/12/04 08:38:46;;;;;;;18.25;12.95;;;4.40;1.00;;;;;;4949779;28;20091;-77
2023/12/04 08:41:11;;;;;;;15.38;13.75;;;4.40;1.00;;;;;;4965583;28;20433;-77
2023/12/04 08:43:37;;;;;;;17.00;13.77;;;4.50;1.00;;;;;;4967865;28;20034;-77
2023/12/04 08:46:03;;;;;;;17.38;14.35;;;4.50;1.00;;;;;;4947270;28;20453;-77
2023/12/04 08:48:29;;;;;;;22.90;13.75;;;4.50;1.00;;;;;;4969847;28;20034;-76
2023/12/04 08:50:56;;;;;;;20.52;14.48;;;4.50;1.00;;;;;;4965991;28;20500;-77
2023/12/04 08:53:22;;;;;;;17.70;13.60;;;4.50;1.00;;;;;;4975490;28;20034;-77
2023/12/04 08:55:47;;;;;;;20.35;13.38;;;4.50;1.00;;;;;;4964527;28;20027;-77
2023/12/04 08:58:13;;;;;;;18.88;14.52;;;4.50;1.00;;;;;;4977777;28;20022;-77
2023/12/04 09:00:42;;;;;;;62.78;33.35;;;4.60;1.00;;;;;;4965305;28;20034;-77
2023/12/04 09:03:10;;;;;;;35.85;24.17;;;4.60;1.00;;;;;;4974471;28;20029;-77
2023/12/04 09:05:36;;;;;;;23.48;17.33;;;4.60;1.00;;;;;;4964270;28;20023;-77
2023/12/04 09:08:02;;;;;;;24.30;16.73;;;4.60;1.00;;;;;;4971820;28;20034;-77
2023/12/04 09:10:27;;;;;;;19.65;15.55;;;4.60;1.00;;;;;;4965574;28;20030;-77
2023/12/04 09:12:54;;;;;;;23.52;14.85;;;4.70;1.00;;;;;;4969766;28;20039;-77
2023/12/04 09:15:20;;;;;;;24.83;15.57;;;4.70;1.00;;;;;;4963585;28;20059;-77
2023/12/04 09:17:45;;;;;;;18.88;13.93;;;4.80;1.00;;;;;;4970967;28;20062;-77
2023/12/04 09:20:11;;;;;;;19.65;13.73;;;4.80;1.00;;;;;;4963749;28;20023;-77
2023/12/04 09:22:38;;;;;;;19.00;13.15;;;4.80;1.00;;;;;;4970705;28;20038;-76
2023/12/04 09:25:08;;;;;;;18.60;13.95;;;4.80;1.00;;;;;;4969795;28;20031;-77
2023/12/04 09:27:34;;;;;;;14.07;12.63;;;4.90;1.00;;;;;;4972192;28;20126;-77
2023/12/04 09:30:01;;;;;;;14.57;13.10;;;5.00;1.00;;;;;;4965803;28;20370;-77
2023/12/04 09:32:26;;;;;;;14.90;13.23;;;5.10;1.00;;;;;;4974930;28;20042;-77
2023/12/04 09:34:52;;;;;;;14.70;13.18;;;5.00;1.00;;;;;;4966213;28;20047;-77
2023/12/04 09:37:18;;;;;;;14.85;13.35;;;5.10;1.00;;;;;;4971588;28;20444;-77
2023/12/04 09:39:43;;;;;;;19.75;13.50;;;5.10;1.00;;;;;;4969398;28;20031;-77
2023/12/04 09:42:10;;;;;;;17.23;14.00;;;5.20;1.00;;;;;;4954587;28;20043;-77
2023/12/04 09:44:37;;;;;;;18.00;13.32;;;5.30;1.00;;;;;;4964987;28;20489;-77
2023/12/04 09:47:04;;;;;;;15.50;13.48;;;5.30;1.00;;;;;;4954613;28;20066;-77
2023/12/04 09:49:31;;;;;;;15.45;13.45;;;5.30;1.00;;;;;;4966341;28;20033;-77
2023/12/04 09:52:02;;;;;;;15.95;13.23;;;5.30;1.00;;;;;;4968975;28;20049;-77
2023/12/04 09:54:29;;;;;;;17.40;13.90;;;5.40;1.00;;;;;;4966875;28;20115;-77
2023/12/04 09:56:55;;;;;;;21.65;14.27;;;5.40;1.00;;;;;;4968139;28;20029;-77
2023/12/04 09:59:27;;;;;;;16.38;13.98;;;5.50;1.00;;;;;;4965242;28;20113;-77
2023/12/04 10:01:52;;;;;;;15.55;13.82;;;5.50;1.00;;;;;;4968475;28;20038;-77
2023/12/04 10:04:19;;;;;;;21.42;14.40;;;5.50;1.00;;;;;;4966914;28;20027;-77
2023/12/04 10:06:45;;;;;;;17.65;14.25;;;5.50;1.00;;;;;;4967463;28;20026;-77
2023/12/04 10:09:13;;;;;;;26.38;14.52;;;5.50;1.00;;;;;;4973194;28;20038;-77
2023/12/04 10:11:41;;;;;;;15.00;13.35;;;5.50;1.00;;;;;;4967792;28;20501;-78
2023/12/04 10:14:20;;;;;;;17.92;14.07;;;5.60;1.00;;;;;;4965954;28;20106;-78
2023/12/04 10:16:47;;;;;;;16.48;14.77;;;5.60;1.00;;;;;;4968792;28;21027;-78
2023/12/04 10:19:17;;;;;;;16.17;14.18;;;5.60;1.00;;;;;;4967179;28;20115;-77
2023/12/04 10:21:47;;;;;;;15.93;14.00;;;5.60;1.00;;;;;;4966569;28;20037;-77
2023/12/04 10:24:31;;;;;;;17.38;15.13;;;5.60;1.00;;;;;;4955818;28;20509;-78
2023/12/04 10:26:57;;;;;;;22.25;16.20;;;5.60;1.00;;;;;;4949561;28;20089;-78
2023/12/04 10:29:24;;;;;;;16.42;14.35;;;5.60;99.90;;;;;;4953383;29;20387;-78
2023/12/04 10:31:52;;;;;;;17.85;14.70;;;5.60;99.90;;;;;;4968410;28;20174;-78
2023/12/04 10:34:18;;;;;;;19.02;15.15;;;5.60;99.90;;;;;;4966377;28;20026;-77
2023/12/04 10:36:45;;;;;;;24.60;16.35;;;5.70;99.90;;;;;;4950928;28;20440;-77
2023/12/04 10:39:13;;;;;;;21.15;15.23;;;5.60;99.90;;;;;;4965100;28;20031;-78
2023/12/04 10:41:38;;;;;;;20.52;15.55;;;5.70;1.00;;;;;;4965476;28;20114;-78
2023/12/04 10:44:04;;;;;;;24.38;16.80;;;5.80;1.00;;;;;;4971308;28;20106;-78
2023/12/04 10:46:31;;;;;;;20.17;15.70;;;5.80;1.00;;;;;;4966875;28;20031;-78
2023/12/04 10:48:58;;;;;;;19.35;14.00;;;5.80;1.00;;;;;;4967241;28;20031;-78
2023/12/04 10:51:25;;;;;;;16.40;14.50;;;5.80;1.00;;;;;;4967993;28;20062;-78
2023/12/04 10:53:51;;;;;;;17.10;14.05;;;5.80;1.00;;;;;;4966449;28;20545;-77
2023/12/04 10:56:29;;;;;;;19.42;14.25;;;5.70;1.00;;;;;;4948599;28;20062;-78
2023/12/04 10:58:59;;;;;;;21.02;14.82;;;5.70;1.00;;;;;;4965441;28;20382;-77
2023/12/04 11:01:26;;;;;;;31.30;17.08;;;5.60;1.00;;;;;;4955626;28;20042;-78
2023/12/04 11:03:55;;;;;;;27.42;16.38;;;5.60;1.00;;;;;;4966034;28;20468;-78
2023/12/04 11:06:24;;;;;;;24.77;15.93;;;5.60;1.00;;;;;;4964329;28;20103;-78
2023/12/04 11:08:53;;;;;;;30.48;15.35;;;5.60;1.00;;;;;;4963967;28;20024;-78
2023/12/04 11:11:25;;;;;;;26.45;14.27;;;5.60;1.00;;;;;;4965492;28;20058;-78
2023/12/04 11:13:56;;;;;;;20.85;15.57;;;5.60;1.00;;;;;;4962439;28;20035;-78
2023/12/04 11:16:47;;;;;;;24.50;13.90;;;5.60;1.00;;;;;;4963695;28;20035;-77
2023/12/04 11:19:36;;;;;;;28.02;15.77;;;5.70;1.00;;;;;;4961354;28;20031;-78
2023/12/04 11:22:03;;;;;;;35.63;16.10;;;5.70;1.00;;;;;;4947924;28;20035;-78
2023/12/04 11:24:29;;;;;;;39.47;16.38;;;5.70;1.00;;;;;;4951113;28;20031;-78
2023/12/04 11:26:55;;;;;;;26.33;16.10;;;5.70;1.00;;;;;;4947986;28;20023;-78
2023/12/04 11:29:23;;;;;;;23.27;15.35;;;5.70;1.00;;;;;;4960340;28;20023;-77
2023/12/04 11:31:49;;;;;;;22.02;14.70;;;5.80;1.00;;;;;;4963736;28;20055;-77
2023/12/04 11:34:14;;;;;;;20.42;15.40;;;5.80;1.00;;;;;;4960906;28;20101;-78
2023/12/04 11:36:40;;;;;;;38.05;16.27;;;5.80;1.00;;;;;;4961618;28;20413;-78
2023/12/04 11:39:10;;;;;;;25.17;15.25;;;5.80;1.00;;;;;;4963440;28;20027;-78
2023/12/04 11:41:37;;;;;;;28.05;15.63;;;5.80;1.00;;;;;;4950813;28;20401;-78
2023/12/04 11:44:03;;;;;;;26.27;15.52;;;5.80;1.00;;;;;;4960704;28;20489;-77
2023/12/04 11:46:31;;;;;;;33.47;16.02;;;5.80;1.00;;;;;;4961340;28;20074;-78
2023/12/04 11:49:28;;;;;;;26.30;15.77;;;5.90;1.00;;;;;;4959725;28;20415;-77
2023/12/04 11:51:55;;;;;;;27.30;15.93;;;5.90;1.00;;;;;;4948936;28;20039;-77
2023/12/04 11:54:25;;;;;;;38.55;18.08;;;6.00;1.00;;;;;;4951190;28;20077;-77
2023/12/04 11:56:59;;;;;;;26.63;15.55;;;5.90;1.00;;;;;;4962329;28;20036;-77
2023/12/04 11:59:24;;;;;;;23.05;15.27;;;5.90;1.00;;;;;;4960642;28;20389;-77
2023/12/04 12:01:53;;;;;;;25.60;15.00;;;6.00;1.00;;;;;;4964806;28;20039;-78
2023/12/04 12:04:20;;;;;;;26.45;15.40;;;6.00;1.00;;;;;;4957132;28;20529;-77
2023/12/04 12:06:45;;;;;;;38.17;16.08;;;6.00;1.00;;;;;;4962879;28;20464;-78
2023/12/04 12:09:11;;;;;;;23.70;15.20;;;6.00;1.00;;;;;;4966199;28;20118;-77
2023/12/04 12:11:37;;;;;;;28.33;15.65;;;6.00;1.00;;;;;;4961157;28;20406;-78
2023/12/04 12:14:04;;;;;;;24.35;15.43;;;6.00;1.00;;;;;;4962906;28;20062;-77
2023/12/04 12:16:32;;;;;;;27.65;16.38;;;6.00;1.00;;;;;;4962428;28;20038;-77
2023/12/04 12:18:57;;;;;;;30.10;17.17;;;6.00;1.00;;;;;;4948263;28;20031;-77
2023/12/04 12:21:24;;;;;;;25.00;17.60;;;6.00;1.00;;;;;;4960895;28;20050;-78
2023/12/04 12:23:50;;;;;;;34.05;17.15;;;6.00;1.00;;;;;;4951181;28;20055;-78
2023/12/04 12:26:16;;;;;;;23.17;15.90;;;6.00;1.00;;;;;;4965014;28;20019;-76
2023/12/04 12:28:42;;;;;;;27.75;17.15;;;6.10;1.00;;;;;;4974715;28;20030;-77
2023/12/04 12:31:07;;;;;;;24.98;15.90;;;6.10;1.00;;;;;;4963347;28;20027;-77
2023/12/04 12:33:33;;;;;;;19.27;14.50;;;6.10;1.00;;;;;;4967226;28;20055;-77
2023/12/04 12:36:00;;;;;;;23.08;15.98;;;6.10;1.00;;;;;;4946135;28;20287;-77
2023/12/04 12:38:26;;;;;;;24.52;15.95;;;6.10;1.00;;;;;;4966957;28;20113;-78
2023/12/04 12:40:51;;;;;;;19.60;14.27;;;6.10;1.00;;;;;;4957125;28;20123;-77
2023/12/04 12:43:23;;;;;;;20.45;15.63;;;6.10;1.00;;;;;;4969563;28;20600;-78
2023/12/04 12:45:48;;;;;;;18.90;15.30;;;6.10;1.00;;;;;;4963148;28;20382;-77
2023/12/04 12:48:16;;;;;;;29.42;15.32;;;6.10;1.00;;;;;;4977190;28;20097;-77
2023/12/04 12:50:46;;;;;;;26.27;17.25;;;6.10;1.00;;;;;;4962368;28;20037;-78